sensor_id;sensor_type;location;lat;lon;timestamp;pressure;altitude;pressure_sealevel;temperature;humidity
78149;BME280;67396;42.664;23.382;2024-03-22T00:01:14;95028.25;;;7.80;42.72
78149;BME280;67396;42.664;23.382;2024-03-22T00:03:39;95031.94;;;7.69;44.34
78149;BME280;67396;42.664;23.382;2024-03-22T00:06:05;95028.63;;;7.56;45.18
78149;BME280;67396;42.664;23.382;2024-03-22T00:08:30;95025.56;;;7.61;44.18
78149;BME280;67396;42.664;23.382;2024-03-22T00:10:56;95020.13;;;7.61;44.57
78149;BME280;67396;42.664;23.382;2024-03-22T00:13:21;95040.84;;;7.43;45.01
78149;BME280;67396;42.664;23.382;2024-03-22T00:15:47;95033.88;;;7.45;44.74
78149;BME280;67396;42.664;23.382;2024-03-22T00:18:12;95032.31;;;7.44;44.03
78149;BME280;67396;42.664;23.382;2024-03-22T00:20:38;95031.59;;;7.47;43.63
78149;BME280;67396;42.664;23.382;2024-03-22T00:23:03;95026.06;;;7.44;43.41
78149;BME280;67396;42.664;23.382;2024-03-22T00:25:30;95032.97;;;7.38;42.74
78149;BME280;67396;42.664;23.382;2024-03-22T00:27:56;95025.53;;;7.15;43.30
78149;BME280;67396;42.664;23.382;2024-03-22T00:30:22;95037.81;;;7.06;45.37
78149;BME280;67396;42.664;23.382;2024-03-22T00:32:47;95029.69;;;7.09;44.20
78149;BME280;67396;42.664;23.382;2024-03-22T00:35:13;95031.22;;;7.07;44.26
78149;BME280;67396;42.664;23.382;2024-03-22T00:37:38;95035.88;;;7.06;44.55
78149;BME280;67396;42.664;23.382;2024-03-22T00:40:05;95036.88;;;6.79;45.17
78149;BME280;67396;42.664;23.382;2024-03-22T00:42:30;95030.56;;;6.75;44.99
78149;BME280;67396;42.664;23.382;2024-03-22T00:44:56;95037.28;;;6.62;46.15
78149;BME280;67396;42.664;23.382;2024-03-22T00:47:23;95028.56;;;6.72;46.37
78149;BME280;67396;42.664;23.382;2024-03-22T00:49:48;95032.44;;;6.90;45.87
78149;BME280;67396;42.664;23.382;2024-03-22T00:52:14;95025.31;;;7.05;44.83
78149;BME280;67396;42.664;23.382;2024-03-22T00:54:39;95022.41;;;6.94;44.36
78149;BME280;67396;42.664;23.382;2024-03-22T00:57:06;95015.75;;;6.95;44.62
78149;BME280;67396;42.664;23.382;2024-03-22T00:59:32;95012.47;;;6.86;44.76
78149;BME280;67396;42.664;23.382;2024-03-22T01:01:57;95021.81;;;6.85;44.61
78149;BME280;67396;42.664;23.382;2024-03-22T01:04:23;95023.38;;;6.86;44.37
78149;BME280;67396;42.664;23.382;2024-03-22T01:06:48;95014.03;;;6.87;44.41
78149;BME280;67396;42.664;23.382;2024-03-22T01:09:14;95020.72;;;6.90;44.43
78149;BME280;67396;42.664;23.382;2024-03-22T01:11:39;95018.66;;;6.83;45.42
78149;BME280;67396;42.664;23.382;2024-03-22T01:14:05;95020.25;;;6.84;45.42
78149;BME280;67396;42.664;23.382;2024-03-22T01:16:31;95024.53;;;7.04;44.60
78149;BME280;67396;42.664;23.382;2024-03-22T01:18:56;95023.88;;;7.11;44.55
78149;BME280;67396;42.664;23.382;2024-03-22T01:21:21;95020.72;;;7.09;44.29
78149;BME280;67396;42.664;23.382;2024-03-22T01:23:51;95025.97;;;6.98;45.29
78149;BME280;67396;42.664;23.382;2024-03-22T01:26:17;95023.03;;;7.07;45.26
78149;BME280;67396;42.664;23.382;2024-03-22T01:28:42;95024.72;;;7.15;45.06
78149;BME280;67396;42.664;23.382;2024-03-22T01:31:08;95026.22;;;7.12;45.45
78149;BME280;67396;42.664;23.382;2024-03-22T01:33:33;95023.50;;;7.12;45.54
78149;BME280;67396;42.664;23.382;2024-03-22T01:35:59;95019.84;;;7.24;45.61
78149;BME280;67396;42.664;23.382;2024-03-22T01:38:24;95020.28;;;7.26;45.54
78149;BME280;67396;42.664;23.382;2024-03-22T01:40:50;95027.09;;;7.36;45.29
78149;BME280;67396;42.664;23.382;2024-03-22T01:43:15;95036.06;;;7.36;44.93
78149;BME280;67396;42.664;23.382;2024-03-22T01:45:41;95025.63;;;7.42;44.12
78149;BME280;67396;42.664;23.382;2024-03-22T01:48:07;95032.22;;;7.41;43.96
78149;BME280;67396;42.664;23.382;2024-03-22T01:50:32;95028.31;;;7.38;44.56
78149;BME280;67396;42.664;23.382;2024-03-22T01:52:58;95024.94;;;7.26;45.07
78149;BME280;67396;42.664;23.382;2024-03-22T01:55:24;95034.00;;;7.30;45.54
78149;BME280;67396;42.664;23.382;2024-03-22T01:57:51;95030.97;;;7.35;45.92
78149;BME280;67396;42.664;23.382;2024-03-22T02:00:18;95035.66;;;7.15;46.26
78149;BME280;67396;42.664;23.382;2024-03-22T02:02:44;95024.38;;;7.16;46.24
78149;BME280;67396;42.664;23.382;2024-03-22T02:05:17;95026.66;;;7.14;46.36
78149;BME280;67396;42.664;23.382;2024-03-22T02:07:45;95030.06;;;7.08;46.27
78149;BME280;67396;42.664;23.382;2024-03-22T02:10:11;95028.84;;;7.05;46.46
78149;BME280;67396;42.664;23.382;2024-03-22T02:12:40;95034.38;;;6.90;47.06
78149;BME280;67396;42.664;23.382;2024-03-22T02:15:07;95033.59;;;6.89;47.07
78149;BME280;67396;42.664;23.382;2024-03-22T02:17:34;95032.66;;;6.82;47.19
78149;BME280;67396;42.664;23.382;2024-03-22T02:20:00;95038.81;;;6.78;47.16
78149;BME280;67396;42.664;23.382;2024-03-22T02:22:26;95037.88;;;6.71;47.26
78149;BME280;67396;42.664;23.382;2024-03-22T02:24:52;95033.34;;;6.78;47.20
78149;BME280;67396;42.664;23.382;2024-03-22T02:27:18;95033.31;;;6.75;46.77
78149;BME280;67396;42.664;23.382;2024-03-22T02:29:43;95039.19;;;6.77;46.87
78149;BME280;67396;42.664;23.382;2024-03-22T02:32:09;95033.00;;;6.61;47.06
78149;BME280;67396;42.664;23.382;2024-03-22T02:34:35;95041.25;;;6.64;47.23
78149;BME280;67396;42.664;23.382;2024-03-22T02:37:01;95039.66;;;6.63;47.82
78149;BME280;67396;42.664;23.382;2024-03-22T02:39:26;95039.41;;;6.68;47.60
78149;BME280;67396;42.664;23.382;2024-03-22T02:41:54;95045.56;;;6.65;47.71
78149;BME280;67396;42.664;23.382;2024-03-22T02:44:19;95054.25;;;6.71;47.03
78149;BME280;67396;42.664;23.382;2024-03-22T02:46:44;95062.53;;;6.74;47.27
78149;BME280;67396;42.664;23.382;2024-03-22T02:49:10;95046.34;;;6.66;47.07
78149;BME280;67396;42.664;23.382;2024-03-22T02:51:36;95053.22;;;6.60;47.57
78149;BME280;67396;42.664;23.382;2024-03-22T02:54:01;95061.94;;;6.65;47.43
78149;BME280;67396;42.664;23.382;2024-03-22T02:56:27;95062.53;;;6.74;47.31
78149;BME280;67396;42.664;23.382;2024-03-22T02:58:53;95070.84;;;6.82;46.32
78149;BME280;67396;42.664;23.382;2024-03-22T03:01:18;95075.50;;;6.81;46.07
78149;BME280;67396;42.664;23.382;2024-03-22T03:03:44;95068.03;;;6.78;46.29
78149;BME280;67396;42.664;23.382;2024-03-22T03:06:10;95080.69;;;7.05;75.87
78149;BME280;67396;42.664;23.382;2024-03-22T03:08:38;95077.47;;;7.19;49.94
78149;BME280;67396;42.664;23.382;2024-03-22T03:11:03;95071.66;;;7.21;46.64
78149;BME280;67396;42.664;23.382;2024-03-22T03:13:29;95076.59;;;6.96;47.11
78149;BME280;67396;42.664;23.382;2024-03-22T03:15:54;95076.16;;;6.74;47.61
78149;BME280;67396;42.664;23.382;2024-03-22T03:18:20;95081.13;;;6.53;49.14
78149;BME280;67396;42.664;23.382;2024-03-22T03:20:45;95080.97;;;6.46;47.82
78149;BME280;67396;42.664;23.382;2024-03-22T03:23:11;95089.50;;;6.45;47.48
78149;BME280;67396;42.664;23.382;2024-03-22T03:25:36;95085.19;;;6.43;47.49
78149;BME280;67396;42.664;23.382;2024-03-22T03:28:02;95082.81;;;6.42;48.38
78149;BME280;67396;42.664;23.382;2024-03-22T03:30:27;95083.47;;;6.35;48.85
78149;BME280;67396;42.664;23.382;2024-03-22T03:32:53;95086.72;;;5.78;49.27
78149;BME280;67396;42.664;23.382;2024-03-22T03:35:18;95102.13;;;5.27;50.10
78149;BME280;67396;42.664;23.382;2024-03-22T03:37:44;95098.16;;;5.24;50.33
78149;BME280;67396;42.664;23.382;2024-03-22T03:40:09;95105.38;;;5.05;50.89
78149;BME280;67396;42.664;23.382;2024-03-22T03:42:35;95094.91;;;4.79;51.67
78149;BME280;67396;42.664;23.382;2024-03-22T03:45:01;95104.13;;;4.74;52.02
78149;BME280;67396;42.664;23.382;2024-03-22T03:47:26;95107.25;;;4.36;53.31
78149;BME280;67396;42.664;23.382;2024-03-22T03:49:52;95108.00;;;4.61;52.66
78149;BME280;67396;42.664;23.382;2024-03-22T03:52:17;95105.41;;;4.52;52.89
78149;BME280;67396;42.664;23.382;2024-03-22T03:54:43;95101.66;;;4.57;53.23
78149;BME280;67396;42.664;23.382;2024-03-22T03:57:08;95113.34;;;4.85;52.70
78149;BME280;67396;42.664;23.382;2024-03-22T03:59:34;95103.59;;;4.97;52.76
78149;BME280;67396;42.664;23.382;2024-03-22T04:02:00;95106.34;;;5.12;51.86
78149;BME280;67396;42.664;23.382;2024-03-22T04:04:26;95106.66;;;5.23;51.49
78149;BME280;67396;42.664;23.382;2024-03-22T04:06:51;95106.34;;;5.12;52.17
78149;BME280;67396;42.664;23.382;2024-03-22T04:09:16;95111.50;;;5.02;52.47
78149;BME280;67396;42.664;23.382;2024-03-22T04:11:42;95109.19;;;5.16;52.42
78149;BME280;67396;42.664;23.382;2024-03-22T04:14:09;95118.00;;;5.25;52.77
78149;BME280;67396;42.664;23.382;2024-03-22T04:16:34;95115.81;;;5.30;52.09
78149;BME280;67396;42.664;23.382;2024-03-22T04:19:00;95115.13;;;5.34;52.54
78149;BME280;67396;42.664;23.382;2024-03-22T04:21:25;95125.84;;;5.42;52.43
78149;BME280;67396;42.664;23.382;2024-03-22T04:23:51;95125.59;;;5.47;51.56
78149;BME280;67396;42.664;23.382;2024-03-22T04:26:17;95130.53;;;5.57;51.07
78149;BME280;67396;42.664;23.382;2024-03-22T04:28:42;95126.34;;;5.60;51.10
78149;BME280;67396;42.664;23.382;2024-03-22T04:31:09;95124.63;;;5.55;51.45
78149;BME280;67396;42.664;23.382;2024-03-22T04:33:36;95135.19;;;5.57;51.93
78149;BME280;67396;42.664;23.382;2024-03-22T04:36:02;95132.31;;;5.65;50.66
78149;BME280;67396;42.664;23.382;2024-03-22T04:38:29;95138.38;;;5.75;51.08
78149;BME280;67396;42.664;23.382;2024-03-22T04:40:55;95142.41;;;5.81;50.81
78149;BME280;67396;42.664;23.382;2024-03-22T04:43:22;95140.16;;;5.83;50.72
78149;BME280;67396;42.664;23.382;2024-03-22T04:45:48;95139.69;;;5.81;50.69
78149;BME280;67396;42.664;23.382;2024-03-22T04:48:16;95147.88;;;5.81;50.66
78149;BME280;67396;42.664;23.382;2024-03-22T04:50:42;95145.56;;;5.51;51.53
78149;BME280;67396;42.664;23.382;2024-03-22T04:53:07;95142.81;;;5.51;51.78
78149;BME280;67396;42.664;23.382;2024-03-22T04:55:34;95151.38;;;5.65;51.03
78149;BME280;67396;42.664;23.382;2024-03-22T04:57:59;95151.53;;;5.73;51.40
78149;BME280;67396;42.664;23.382;2024-03-22T05:00:26;95148.41;;;5.71;50.68
78149;BME280;67396;42.664;23.382;2024-03-22T05:02:52;95146.25;;;5.92;50.13
78149;BME280;67396;42.664;23.382;2024-03-22T05:05:18;95154.59;;;5.99;49.15
78149;BME280;67396;42.664;23.382;2024-03-22T05:07:44;95150.72;;;6.00;49.01
78149;BME280;67396;42.664;23.382;2024-03-22T05:10:09;95147.59;;;5.98;51.21
78149;BME280;67396;42.664;23.382;2024-03-22T05:12:35;95157.19;;;6.23;55.59
78149;BME280;67396;42.664;23.382;2024-03-22T05:15:05;95154.50;;;6.42;48.79
78149;BME280;67396;42.664;23.382;2024-03-22T05:17:31;95158.38;;;6.57;48.60
78149;BME280;67396;42.664;23.382;2024-03-22T05:19:58;95160.94;;;6.34;48.21
78149;BME280;67396;42.664;23.382;2024-03-22T05:22:23;95165.78;;;6.10;49.07
78149;BME280;67396;42.664;23.382;2024-03-22T05:24:49;95163.94;;;6.29;48.27
78149;BME280;67396;42.664;23.382;2024-03-22T05:27:14;95171.34;;;5.85;49.75
78149;BME280;67396;42.664;23.382;2024-03-22T05:29:40;95175.22;;;5.56;50.52
78149;BME280;67396;42.664;23.382;2024-03-22T05:32:05;95167.81;;;5.69;50.64
78149;BME280;67396;42.664;23.382;2024-03-22T05:34:31;95167.34;;;6.11;50.21
78149;BME280;67396;42.664;23.382;2024-03-22T05:36:57;95174.03;;;6.45;49.24
78149;BME280;67396;42.664;23.382;2024-03-22T05:39:22;95166.03;;;7.02;47.51
78149;BME280;67396;42.664;23.382;2024-03-22T05:41:48;95163.53;;;7.51;46.79
78149;BME280;67396;42.664;23.382;2024-03-22T05:44:13;95170.59;;;7.94;45.51
78149;BME280;67396;42.664;23.382;2024-03-22T05:46:39;95171.81;;;8.20;45.54
78149;BME280;67396;42.664;23.382;2024-03-22T05:49:04;95183.19;;;8.41;44.72
78149;BME280;67396;42.664;23.382;2024-03-22T05:51:30;95175.31;;;8.62;44.45
78149;BME280;67396;42.664;23.382;2024-03-22T05:53:56;95180.13;;;8.69;44.66
78149;BME280;67396;42.664;23.382;2024-03-22T05:56:22;95191.53;;;8.29;50.31
78149;BME280;67396;42.664;23.382;2024-03-22T05:58:48;95180.84;;;8.92;44.74
78149;BME280;67396;42.664;23.382;2024-03-22T06:01:14;95182.69;;;9.11;44.05
78149;BME280;67396;42.664;23.382;2024-03-22T06:03:41;95193.59;;;8.81;44.35
78149;BME280;67396;42.664;23.382;2024-03-22T06:06:06;95187.00;;;8.37;45.20
78149;BME280;67396;42.664;23.382;2024-03-22T06:08:32;95182.97;;;8.08;45.34
78149;BME280;67396;42.664;23.382;2024-03-22T06:11:00;95189.56;;;8.07;46.46
78149;BME280;67396;42.664;23.382;2024-03-22T06:13:26;95187.13;;;8.02;46.24
78149;BME280;67396;42.664;23.382;2024-03-22T06:15:51;95189.63;;;8.52;45.59
78149;BME280;67396;42.664;23.382;2024-03-22T06:18:17;95184.75;;;9.18;44.56
78149;BME280;67396;42.664;23.382;2024-03-22T06:20:43;95183.13;;;9.73;43.29
78149;BME280;67396;42.664;23.382;2024-03-22T06:23:09;95181.59;;;9.79;44.91
78149;BME280;67396;42.664;23.382;2024-03-22T06:25:34;95191.69;;;10.05;47.71
78149;BME280;67396;42.664;23.382;2024-03-22T06:28:00;95186.97;;;10.02;42.66
78149;BME280;67396;42.664;23.382;2024-03-22T06:30:26;95186.19;;;10.01;47.64
78149;BME280;67396;42.664;23.382;2024-03-22T06:32:54;95179.16;;;10.88;41.80
78149;BME280;67396;42.664;23.382;2024-03-22T06:35:23;95187.75;;;10.83;40.87
78149;BME280;67396;42.664;23.382;2024-03-22T06:37:48;95185.75;;;11.39;43.04
78149;BME280;67396;42.664;23.382;2024-03-22T06:40:14;95191.22;;;12.18;46.99
78149;BME280;67396;42.664;23.382;2024-03-22T06:42:40;95189.31;;;12.40;38.17
78149;BME280;67396;42.664;23.382;2024-03-22T06:45:06;95192.81;;;12.26;38.81
78149;BME280;67396;42.664;23.382;2024-03-22T06:47:32;95188.38;;;11.90;38.27
78149;BME280;67396;42.664;23.382;2024-03-22T06:49:58;95202.16;;;11.93;38.44
78149;BME280;67396;42.664;23.382;2024-03-22T06:52:23;95204.19;;;12.14;37.72
78149;BME280;67396;42.664;23.382;2024-03-22T06:54:49;95201.84;;;12.23;37.93
78149;BME280;67396;42.664;23.382;2024-03-22T06:57:14;95202.59;;;12.06;38.09
78149;BME280;67396;42.664;23.382;2024-03-22T06:59:40;95212.50;;;12.42;37.98
78149;BME280;67396;42.664;23.382;2024-03-22T07:02:05;95207.81;;;12.61;38.12
78149;BME280;67396;42.664;23.382;2024-03-22T07:04:31;95205.88;;;12.72;37.26
78149;BME280;67396;42.664;23.382;2024-03-22T07:06:56;95204.31;;;13.13;36.88
78149;BME280;67396;42.664;23.382;2024-03-22T07:09:22;95211.78;;;13.02;35.95
78149;BME280;67396;42.664;23.382;2024-03-22T07:11:47;95206.69;;;13.33;35.71
78149;BME280;67396;42.664;23.382;2024-03-22T07:14:13;95203.91;;;13.33;35.60
78149;BME280;67396;42.664;23.382;2024-03-22T07:16:38;95202.75;;;13.23;35.94
78149;BME280;67396;42.664;23.382;2024-03-22T07:19:04;95208.25;;;13.34;35.94
78149;BME280;67396;42.664;23.382;2024-03-22T07:21:30;95211.75;;;13.52;35.58
78149;BME280;67396;42.664;23.382;2024-03-22T07:23:56;95211.28;;;13.85;34.81
78149;BME280;67396;42.664;23.382;2024-03-22T07:26:21;95214.88;;;13.68;34.97
78149;BME280;67396;42.664;23.382;2024-03-22T07:28:47;95211.72;;;13.70;35.56
78149;BME280;67396;42.664;23.382;2024-03-22T07:31:14;95205.50;;;13.27;36.46
78149;BME280;67396;42.664;23.382;2024-03-22T07:33:39;95206.47;;;14.04;33.61
78149;BME280;67396;42.664;23.382;2024-03-22T07:36:06;95209.16;;;14.18;33.63
78149;BME280;67396;42.664;23.382;2024-03-22T07:38:31;95215.50;;;14.15;33.79
78149;BME280;67396;42.664;23.382;2024-03-22T07:40:57;95207.91;;;14.33;33.14
78149;BME280;67396;42.664;23.382;2024-03-22T07:43:22;95211.34;;;14.55;33.27
78149;BME280;67396;42.664;23.382;2024-03-22T07:45:48;95216.94;;;14.44;32.95
78149;BME280;67396;42.664;23.382;2024-03-22T07:48:13;95216.53;;;14.49;32.25
78149;BME280;67396;42.664;23.382;2024-03-22T07:50:39;95218.41;;;14.66;31.90
78149;BME280;67396;42.664;23.382;2024-03-22T07:53:05;95215.25;;;15.16;31.05
78149;BME280;67396;42.664;23.382;2024-03-22T07:55:30;95215.88;;;15.34;30.20
78149;BME280;67396;42.664;23.382;2024-03-22T07:57:56;95215.19;;;15.23;30.68
78149;BME280;67396;42.664;23.382;2024-03-22T08:00:23;95217.28;;;15.12;30.65
78149;BME280;67396;42.664;23.382;2024-03-22T08:02:52;95220.81;;;15.61;29.50
78149;BME280;67396;42.664;23.382;2024-03-22T08:05:18;95217.31;;;15.57;29.36
78149;BME280;67396;42.664;23.382;2024-03-22T08:07:44;95213.44;;;15.85;29.88
78149;BME280;67396;42.664;23.382;2024-03-22T08:10:10;95219.50;;;15.28;30.90
78149;BME280;67396;42.664;23.382;2024-03-22T08:12:36;95227.19;;;15.54;31.26
78149;BME280;67396;42.664;23.382;2024-03-22T08:15:01;95218.94;;;15.47;30.11
78149;BME280;67396;42.664;23.382;2024-03-22T08:17:27;95213.31;;;15.95;28.95
78149;BME280;67396;42.664;23.382;2024-03-22T08:19:53;95202.63;;;15.97;29.34
78149;BME280;67396;42.664;23.382;2024-03-22T08:22:18;95195.41;;;16.03;29.44
78149;BME280;67396;42.664;23.382;2024-03-22T08:24:44;95192.59;;;16.37;29.71
78149;BME280;67396;42.664;23.382;2024-03-22T08:27:09;95199.50;;;16.26;28.74
78149;BME280;67396;42.664;23.382;2024-03-22T08:29:35;95201.25;;;16.43;28.08
78149;BME280;67396;42.664;23.382;2024-03-22T08:32:00;95199.78;;;16.35;27.74
78149;BME280;67396;42.664;23.382;2024-03-22T08:34:30;95200.97;;;16.64;27.88
78149;BME280;67396;42.664;23.382;2024-03-22T08:36:55;95200.22;;;15.21;30.08
78149;BME280;67396;42.664;23.382;2024-03-22T08:39:21;95198.78;;;15.02;31.04
78149;BME280;67396;42.664;23.382;2024-03-22T08:41:46;95202.53;;;15.67;30.30
78149;BME280;67396;42.664;23.382;2024-03-22T08:44:12;95206.06;;;15.71;29.46
78149;BME280;67396;42.664;23.382;2024-03-22T08:46:37;95194.94;;;15.74;29.83
78149;BME280;67396;42.664;23.382;2024-03-22T08:49:03;95203.81;;;15.59;28.82
78149;BME280;67396;42.664;23.382;2024-03-22T08:51:28;95216.81;;;15.21;31.28
78149;BME280;67396;42.664;23.382;2024-03-22T08:53:55;95203.38;;;15.19;30.84
78149;BME280;67396;42.664;23.382;2024-03-22T08:56:20;95205.47;;;14.49;32.23
78149;BME280;67396;42.664;23.382;2024-03-22T08:58:46;95217.13;;;14.02;33.00
78149;BME280;67396;42.664;23.382;2024-03-22T09:01:11;95201.41;;;13.88;32.47
78149;BME280;67396;42.664;23.382;2024-03-22T09:03:37;95208.09;;;13.90;32.42
78149;BME280;67396;42.664;23.382;2024-03-22T09:06:02;95205.81;;;13.64;31.74
78149;BME280;67396;42.664;23.382;2024-03-22T09:08:28;95210.59;;;13.53;32.47
78149;BME280;67396;42.664;23.382;2024-03-22T09:10:55;95200.72;;;13.52;32.70
78149;BME280;67396;42.664;23.382;2024-03-22T09:13:20;95197.97;;;13.48;32.35
78149;BME280;67396;42.664;23.382;2024-03-22T09:15:46;95194.06;;;12.64;33.63
78149;BME280;67396;42.664;23.382;2024-03-22T09:18:11;95194.09;;;12.82;34.07
78149;BME280;67396;42.664;23.382;2024-03-22T09:20:37;95187.78;;;12.99;33.78
78149;BME280;67396;42.664;23.382;2024-03-22T09:23:02;95198.78;;;12.85;33.39
78149;BME280;67396;42.664;23.382;2024-03-22T09:25:29;95187.38;;;12.79;32.84
78149;BME280;67396;42.664;23.382;2024-03-22T09:27:54;95186.97;;;12.70;33.92
78149;BME280;67396;42.664;23.382;2024-03-22T09:30:20;95183.03;;;12.39;34.64
78149;BME280;67396;42.664;23.382;2024-03-22T09:32:47;95187.72;;;12.28;34.74
78149;BME280;67396;42.664;23.382;2024-03-22T09:35:13;95183.81;;;12.40;34.48
78149;BME280;67396;42.664;23.382;2024-03-22T09:37:43;95181.84;;;12.30;34.68
78149;BME280;67396;42.664;23.382;2024-03-22T09:40:08;95184.91;;;12.03;34.35
78149;BME280;67396;42.664;23.382;2024-03-22T09:42:38;95184.13;;;12.10;34.17
78149;BME280;67396;42.664;23.382;2024-03-22T09:45:08;95177.88;;;12.13;35.04
78149;BME280;67396;42.664;23.382;2024-03-22T09:47:36;95183.34;;;12.17;35.11
78149;BME280;67396;42.664;23.382;2024-03-22T09:50:04;95183.00;;;12.32;34.21
78149;BME280;67396;42.664;23.382;2024-03-22T09:52:33;95181.78;;;12.16;34.27
78149;BME280;67396;42.664;23.382;2024-03-22T09:54:58;95181.41;;;12.14;34.57
78149;BME280;67396;42.664;23.382;2024-03-22T09:57:24;95176.28;;;12.12;34.90
78149;BME280;67396;42.664;23.382;2024-03-22T09:59:51;95182.22;;;12.21;34.60
78149;BME280;67396;42.664;23.382;2024-03-22T10:02:17;95181.00;;;12.19;34.30
78149;BME280;67396;42.664;23.382;2024-03-22T10:04:43;95175.50;;;12.12;34.76
78149;BME280;67396;42.664;23.382;2024-03-22T10:07:09;95163.25;;;11.95;35.12
78149;BME280;67396;42.664;23.382;2024-03-22T10:09:35;95163.63;;;11.90;35.41
78149;BME280;67396;42.664;23.382;2024-03-22T10:12:04;95169.91;;;11.87;35.14
78149;BME280;67396;42.664;23.382;2024-03-22T10:14:30;95174.47;;;11.61;35.98
78149;BME280;67396;42.664;23.382;2024-03-22T10:16:57;95161.94;;;11.71;36.09
78149;BME280;67396;42.664;23.382;2024-03-22T10:19:23;95170.56;;;11.62;35.46
78149;BME280;67396;42.664;23.382;2024-03-22T10:22:01;95154.53;;;11.79;34.82
78149;BME280;67396;42.664;23.382;2024-03-22T10:24:28;95155.78;;;11.92;34.46
78149;BME280;67396;42.664;23.382;2024-03-22T10:26:54;95155.00;;;11.95;35.32
78149;BME280;67396;42.664;23.382;2024-03-22T10:29:20;95155.75;;;11.85;35.28
78149;BME280;67396;42.664;23.382;2024-03-22T10:31:47;95157.78;;;12.02;34.72
78149;BME280;67396;42.664;23.382;2024-03-22T10:34:14;95141.28;;;12.09;34.10
78149;BME280;67396;42.664;23.382;2024-03-22T10:36:41;95137.34;;;12.03;34.63
78149;BME280;67396;42.664;23.382;2024-03-22T10:39:07;95134.41;;;11.57;35.44
78149;BME280;67396;42.664;23.382;2024-03-22T10:41:34;95131.31;;;11.73;34.60
78149;BME280;67396;42.664;23.382;2024-03-22T10:44:00;95146.34;;;11.93;34.29
78149;BME280;67396;42.664;23.382;2024-03-22T10:46:29;95129.47;;;12.01;34.33
78149;BME280;67396;42.664;23.382;2024-03-22T10:48:56;95139.69;;;11.94;34.20
78149;BME280;67396;42.664;23.382;2024-03-22T10:51:23;95131.78;;;11.82;35.01
78149;BME280;67396;42.664;23.382;2024-03-22T10:53:51;95125.09;;;11.83;34.38
78149;BME280;67396;42.664;23.382;2024-03-22T10:56:18;95125.94;;;11.94;34.00
78149;BME280;67396;42.664;23.382;2024-03-22T10:58:44;95118.47;;;12.05;34.29
78149;BME280;67396;42.664;23.382;2024-03-22T11:01:22;95120.81;;;12.06;34.35
78149;BME280;67396;42.664;23.382;2024-03-22T11:03:48;95113.75;;;12.02;34.15
78149;BME280;67396;42.664;23.382;2024-03-22T11:06:20;95104.31;;;11.99;34.25
78149;BME280;67396;42.664;23.382;2024-03-22T11:09:05;95108.97;;;11.81;34.67
78149;BME280;67396;42.664;23.382;2024-03-22T11:11:31;95098.81;;;11.96;34.74
78149;BME280;67396;42.664;23.382;2024-03-22T11:14:03;95100.78;;;12.02;34.00
78149;BME280;67396;42.664;23.382;2024-03-22T11:16:29;95098.00;;;11.88;34.24
78149;BME280;67396;42.664;23.382;2024-03-22T11:18:55;95099.16;;;11.80;34.22
78149;BME280;67396;42.664;23.382;2024-03-22T11:21:21;95089.34;;;11.83;34.20
78149;BME280;67396;42.664;23.382;2024-03-22T11:23:47;95098.81;;;11.96;33.81
78149;BME280;67396;42.664;23.382;2024-03-22T11:26:12;95097.25;;;12.16;33.55
78149;BME280;67396;42.664;23.382;2024-03-22T11:28:39;95091.75;;;12.16;33.83
78149;BME280;67396;42.664;23.382;2024-03-22T11:31:05;95093.34;;;12.24;33.59
78149;BME280;67396;42.664;23.382;2024-03-22T11:33:31;95089.81;;;12.27;32.26
78149;BME280;67396;42.664;23.382;2024-03-22T11:36:00;95089.78;;;12.24;33.22
78149;BME280;67396;42.664;23.382;2024-03-22T11:38:26;95081.53;;;12.24;32.66
78149;BME280;67396;42.664;23.382;2024-03-22T11:40:57;95072.53;;;12.30;32.94
78149;BME280;67396;42.664;23.382;2024-03-22T11:43:26;95077.59;;;12.14;32.88
78149;BME280;67396;42.664;23.382;2024-03-22T11:45:53;95072.06;;;11.96;33.63
78149;BME280;67396;42.664;23.382;2024-03-22T11:48:19;95072.88;;;12.15;33.49
78149;BME280;67396;42.664;23.382;2024-03-22T11:50:45;95063.84;;;12.25;33.48
78149;BME280;67396;42.664;23.382;2024-03-22T11:53:11;95067.00;;;12.23;33.19
78149;BME280;67396;42.664;23.382;2024-03-22T11:55:36;95071.72;;;12.37;32.70
78149;BME280;67396;42.664;23.382;2024-03-22T11:58:02;95068.97;;;12.26;32.65
78149;BME280;67396;42.664;23.382;2024-03-22T12:00:28;95054.00;;;12.24;32.77
78149;BME280;67396;42.664;23.382;2024-03-22T12:02:53;95064.25;;;12.13;33.40
78149;BME280;67396;42.664;23.382;2024-03-22T12:05:20;95054.03;;;12.10;33.26
78149;BME280;67396;42.664;23.382;2024-03-22T12:07:46;95056.38;;;12.11;32.73
78149;BME280;67396;42.664;23.382;2024-03-22T12:10:12;95046.97;;;12.12;33.32
78149;BME280;67396;42.664;23.382;2024-03-22T12:12:37;95048.13;;;12.11;32.97
78149;BME280;67396;42.664;23.382;2024-03-22T12:15:04;95043.78;;;11.89;33.75
78149;BME280;67396;42.664;23.382;2024-03-22T12:17:30;95039.88;;;12.04;32.88
78149;BME280;67396;42.664;23.382;2024-03-22T12:19:55;95027.31;;;11.96;33.23
78149;BME280;67396;42.664;23.382;2024-03-22T12:22:22;95029.66;;;12.01;33.65
78149;BME280;67396;42.664;23.382;2024-03-22T12:24:47;95031.22;;;12.16;33.42
78149;BME280;67396;42.664;23.382;2024-03-22T12:27:13;95028.84;;;12.25;33.17
78149;BME280;67396;42.664;23.382;2024-03-22T12:29:39;95018.66;;;12.22;33.44
78149;BME280;67396;42.664;23.382;2024-03-22T12:32:05;95019.44;;;12.19;33.37
78149;BME280;67396;42.664;23.382;2024-03-22T12:34:32;95015.50;;;12.34;32.63
78149;BME280;67396;42.664;23.382;2024-03-22T12:37:01;95019.44;;;12.37;32.94
78149;BME280;67396;42.664;23.382;2024-03-22T12:39:27;95020.59;;;12.43;33.08
78149;BME280;67396;42.664;23.382;2024-03-22T12:41:53;95018.59;;;12.58;32.00
78149;BME280;67396;42.664;23.382;2024-03-22T12:44:20;95013.88;;;12.69;31.86
78149;BME280;67396;42.664;23.382;2024-03-22T12:46:46;95013.06;;;12.68;31.73
78149;BME280;67396;42.664;23.382;2024-03-22T12:49:11;95006.78;;;12.68;31.86